This is the latest recevied weather packets stored in our database for station/object KSUZ. If no packets are shown the sender has not sent any weather packets the latest 10 day(s).
| Time | Temp. | Humidity | Pressure | Rain* | Wind** | Luminosity | Snow |
|---|---|---|---|---|---|---|---|
| 1778373227 | 25° C | 69% | 1010.2 hPa | - | - | - | - |
| 1778372624 | 25° C | 69% | 1010.2 hPa | - | - | - | - |
| 1778372026 | 25.56° C | 65% | 1010.2 hPa | - | - | - | - |
| 1778371422 | 25.56° C | 65% | 1010.2 hPa | - | - | - | - |
| 1778370825 | 25.56° C | 65% | 1010.2 hPa | - | - | - | - |
| 1778370227 | 25.56° C | 65% | 1010.2 hPa | - | - | - | - |
| 1778369630 | 25.56° C | 65% | 1009.8 hPa | - | - | - | - |
| 1778369027 | 25.56° C | 65% | 1009.8 hPa | - | - | - | - |
| 1778368429 | 25.56° C | 65% | 1009.8 hPa | - | - | - | - |
| 1778367828 | 25.56° C | 65% | 1009.8 hPa | - | - | - | - |
| 1778367228 | 25.56° C | 65% | 1009.5 hPa | - | - | - | - |
| 1778366623 | 25.56° C | 65% | 1009.5 hPa | - | - | - | - |
| 1778366035 | 26.67° C | 61% | 1009.5 hPa | - | - | - | - |
| 1778365429 | 26.67° C | 61% | 1009.5 hPa | - | - | - | - |
| 1778364826 | 26.67° C | 57% | 1009.5 hPa | - | - | - | - |
| 1778364223 | 26.67° C | 57% | 1009.5 hPa | - | - | - | - |
| 1778363624 | 27.78° C | 54% | 1009.5 hPa | - | - | - | - |
| 1778363027 | 27.78° C | 54% | 1009.5 hPa | - | - | - | - |
| 1778362426 | 26.67° C | 57% | 1009.5 hPa | - | - | - | - |
| 1778361826 | 26.67° C | 57% | 1009.5 hPa | - | - | - | - |
| 1778361223 | 25.56° C | 65% | 1009.8 hPa | - | - | - | - |
| 1778360624 | 25.56° C | 65% | 1009.8 hPa | - | - | - | - |
| 1778360023 | 26.67° C | 57% | 1009.8 hPa | - | - | - | - |
| 1778359423 | 26.67° C | 57% | 1009.8 hPa | - | - | - | - |
| 1778358827 | 26.67° C | 57% | 1010.2 hPa | - | - | - | - |
* Rain since midnight (hover to see other rain measurements)
** Current wind speed in m/s (hover to see current wind gust speed)